sensor_id;sensor_type;location;lat;lon;timestamp;temperature;humidity
7002;DHT22;3541;53.230;10.518;2023-05-14T00:00:44;17.40;99.90
7002;DHT22;3541;53.230;10.518;2023-05-14T00:03:11;17.40;99.90
7002;DHT22;3541;53.230;10.518;2023-05-14T00:05:38;17.30;99.90
7002;DHT22;3541;53.230;10.518;2023-05-14T00:08:06;17.40;99.90
7002;DHT22;3541;53.230;10.518;2023-05-14T00:10:33;17.40;99.90
7002;DHT22;3541;53.230;10.518;2023-05-14T00:12:59;17.40;99.90
7002;DHT22;3541;53.230;10.518;2023-05-14T00:15:26;17.40;99.90
7002;DHT22;3541;53.230;10.518;2023-05-14T00:17:53;17.40;99.90
7002;DHT22;3541;53.230;10.518;2023-05-14T00:20:19;17.30;99.90
7002;DHT22;3541;53.230;10.518;2023-05-14T00:22:46;17.30;99.90
7002;DHT22;3541;53.230;10.518;2023-05-14T00:25:14;17.30;99.90
7002;DHT22;3541;53.230;10.518;2023-05-14T00:27:40;17.20;99.90
7002;DHT22;3541;53.230;10.518;2023-05-14T00:30:07;17.10;99.90
7002;DHT22;3541;53.230;10.518;2023-05-14T00:32:34;17.10;99.90
7002;DHT22;3541;53.230;10.518;2023-05-14T00:35:00;17.20;99.90
7002;DHT22;3541;53.230;10.518;2023-05-14T00:37:28;17.10;99.90
7002;DHT22;3541;53.230;10.518;2023-05-14T00:39:55;17.20;99.90
7002;DHT22;3541;53.230;10.518;2023-05-14T00:42:23;17.10;99.90
7002;DHT22;3541;53.230;10.518;2023-05-14T00:44:50;17.20;99.90
7002;DHT22;3541;53.230;10.518;2023-05-14T00:47:17;17.20;99.90
7002;DHT22;3541;53.230;10.518;2023-05-14T00:49:44;17.10;99.90
7002;DHT22;3541;53.230;10.518;2023-05-14T00:52:11;17.10;99.90
7002;DHT22;3541;53.230;10.518;2023-05-14T00:54:38;17.00;99.90
7002;DHT22;3541;53.230;10.518;2023-05-14T00:57:05;17.00;99.90
7002;DHT22;3541;53.230;10.518;2023-05-14T00:59:33;16.90;99.90
7002;DHT22;3541;53.230;10.518;2023-05-14T01:02:00;16.90;99.90
7002;DHT22;3541;53.230;10.518;2023-05-14T01:04:27;16.80;99.90
7002;DHT22;3541;53.230;10.518;2023-05-14T01:07:01;16.90;99.90
7002;DHT22;3541;53.230;10.518;2023-05-14T01:09:38;16.80;99.90
7002;DHT22;3541;53.230;10.518;2023-05-14T01:12:14;16.80;99.90
7002;DHT22;3541;53.230;10.518;2023-05-14T01:14:51;16.80;99.90
7002;DHT22;3541;53.230;10.518;2023-05-14T01:17:20;16.80;99.90
7002;DHT22;3541;53.230;10.518;2023-05-14T01:19:47;16.80;99.90
7002;DHT22;3541;53.230;10.518;2023-05-14T01:22:17;16.80;99.90
7002;DHT22;3541;53.230;10.518;2023-05-14T01:24:43;16.80;99.90
7002;DHT22;3541;53.230;10.518;2023-05-14T01:27:14;16.70;99.90
7002;DHT22;3541;53.230;10.518;2023-05-14T01:29:44;16.70;99.90
7002;DHT22;3541;53.230;10.518;2023-05-14T01:32:12;16.70;99.90
7002;DHT22;3541;53.230;10.518;2023-05-14T01:34:40;16.80;99.90
7002;DHT22;3541;53.230;10.518;2023-05-14T01:37:07;16.70;99.90
7002;DHT22;3541;53.230;10.518;2023-05-14T01:39:37;16.60;99.90
7002;DHT22;3541;53.230;10.518;2023-05-14T01:42:04;16.70;99.90
7002;DHT22;3541;53.230;10.518;2023-05-14T01:44:38;16.70;99.90
7002;DHT22;3541;53.230;10.518;2023-05-14T01:47:05;16.60;99.90
7002;DHT22;3541;53.230;10.518;2023-05-14T01:49:31;16.60;99.90
7002;DHT22;3541;53.230;10.518;2023-05-14T01:51:58;16.60;99.90
7002;DHT22;3541;53.230;10.518;2023-05-14T01:54:24;16.50;99.90
7002;DHT22;3541;53.230;10.518;2023-05-14T01:56:52;16.40;99.90
7002;DHT22;3541;53.230;10.518;2023-05-14T01:59:19;16.30;99.90
7002;DHT22;3541;53.230;10.518;2023-05-14T02:01:45;16.20;99.90
7002;DHT22;3541;53.230;10.518;2023-05-14T02:04:12;16.10;99.90
7002;DHT22;3541;53.230;10.518;2023-05-14T02:06:38;16.00;99.90
7002;DHT22;3541;53.230;10.518;2023-05-14T02:09:05;16.00;99.90
7002;DHT22;3541;53.230;10.518;2023-05-14T02:11:32;15.90;99.90
7002;DHT22;3541;53.230;10.518;2023-05-14T02:13:59;15.90;99.90
7002;DHT22;3541;53.230;10.518;2023-05-14T02:16:26;15.90;99.90
7002;DHT22;3541;53.230;10.518;2023-05-14T02:18:52;15.80;99.90
7002;DHT22;3541;53.230;10.518;2023-05-14T02:21:19;15.70;99.90
7002;DHT22;3541;53.230;10.518;2023-05-14T02:23:46;15.60;99.90
7002;DHT22;3541;53.230;10.518;2023-05-14T02:26:13;15.60;99.90
7002;DHT22;3541;53.230;10.518;2023-05-14T02:28:40;15.60;99.90
7002;DHT22;3541;53.230;10.518;2023-05-14T02:31:08;15.50;99.90
7002;DHT22;3541;53.230;10.518;2023-05-14T02:33:35;15.50;99.90
7002;DHT22;3541;53.230;10.518;2023-05-14T02:36:01;15.40;99.90
7002;DHT22;3541;53.230;10.518;2023-05-14T02:38:28;15.30;99.90
7002;DHT22;3541;53.230;10.518;2023-05-14T02:40:54;15.40;99.90
7002;DHT22;3541;53.230;10.518;2023-05-14T02:43:21;15.40;99.90
7002;DHT22;3541;53.230;10.518;2023-05-14T02:45:47;15.40;99.90
7002;DHT22;3541;53.230;10.518;2023-05-14T02:48:15;15.30;99.90
7002;DHT22;3541;53.230;10.518;2023-05-14T02:50:42;15.30;99.90
7002;DHT22;3541;53.230;10.518;2023-05-14T02:53:08;15.30;99.90
7002;DHT22;3541;53.230;10.518;2023-05-14T02:55:35;15.20;99.90
7002;DHT22;3541;53.230;10.518;2023-05-14T02:58:02;15.30;99.90
7002;DHT22;3541;53.230;10.518;2023-05-14T03:00:29;15.30;99.90
7002;DHT22;3541;53.230;10.518;2023-05-14T03:02:55;15.30;99.90
7002;DHT22;3541;53.230;10.518;2023-05-14T03:05:23;15.30;99.90
7002;DHT22;3541;53.230;10.518;2023-05-14T03:07:50;15.40;99.90
7002;DHT22;3541;53.230;10.518;2023-05-14T03:10:17;15.30;99.90
7002;DHT22;3541;53.230;10.518;2023-05-14T03:12:44;15.20;99.90
7002;DHT22;3541;53.230;10.518;2023-05-14T03:15:11;15.10;99.90
7002;DHT22;3541;53.230;10.518;2023-05-14T03:17:38;15.10;99.90
7002;DHT22;3541;53.230;10.518;2023-05-14T03:20:05;15.10;99.90
7002;DHT22;3541;53.230;10.518;2023-05-14T03:22:34;15.20;99.90
7002;DHT22;3541;53.230;10.518;2023-05-14T03:25:00;15.20;99.90
7002;DHT22;3541;53.230;10.518;2023-05-14T03:27:27;15.10;99.90
7002;DHT22;3541;53.230;10.518;2023-05-14T03:29:53;15.00;99.90
7002;DHT22;3541;53.230;10.518;2023-05-14T03:32:20;15.00;99.90
7002;DHT22;3541;53.230;10.518;2023-05-14T03:34:46;14.90;99.90
7002;DHT22;3541;53.230;10.518;2023-05-14T03:37:13;14.90;99.90
7002;DHT22;3541;53.230;10.518;2023-05-14T03:39:41;14.80;99.90
7002;DHT22;3541;53.230;10.518;2023-05-14T03:42:07;14.80;99.90
7002;DHT22;3541;53.230;10.518;2023-05-14T03:44:34;14.80;99.90
7002;DHT22;3541;53.230;10.518;2023-05-14T03:47:01;14.80;99.90
7002;DHT22;3541;53.230;10.518;2023-05-14T03:49:27;14.80;99.90
7002;DHT22;3541;53.230;10.518;2023-05-14T03:51:54;14.70;99.90
7002;DHT22;3541;53.230;10.518;2023-05-14T03:54:21;14.70;99.90
7002;DHT22;3541;53.230;10.518;2023-05-14T03:56:49;14.80;99.90
7002;DHT22;3541;53.230;10.518;2023-05-14T03:59:16;14.70;99.90
7002;DHT22;3541;53.230;10.518;2023-05-14T04:01:42;14.70;99.90
7002;DHT22;3541;53.230;10.518;2023-05-14T04:04:09;14.70;99.90
7002;DHT22;3541;53.230;10.518;2023-05-14T04:06:36;14.70;99.90
7002;DHT22;3541;53.230;10.518;2023-05-14T04:09:02;14.70;99.90
7002;DHT22;3541;53.230;10.518;2023-05-14T04:11:29;14.80;99.90
7002;DHT22;3541;53.230;10.518;2023-05-14T04:13:57;14.70;99.90
7002;DHT22;3541;53.230;10.518;2023-05-14T04:16:23;14.80;99.90
7002;DHT22;3541;53.230;10.518;2023-05-14T04:18:50;14.80;99.90
7002;DHT22;3541;53.230;10.518;2023-05-14T04:21:17;14.70;99.90
7002;DHT22;3541;53.230;10.518;2023-05-14T04:23:43;14.60;99.90
7002;DHT22;3541;53.230;10.518;2023-05-14T04:26:10;14.60;99.90
7002;DHT22;3541;53.230;10.518;2023-05-14T04:28:36;14.70;99.90
7002;DHT22;3541;53.230;10.518;2023-05-14T04:31:04;14.70;99.90
7002;DHT22;3541;53.230;10.518;2023-05-14T04:33:30;14.80;99.90
7002;DHT22;3541;53.230;10.518;2023-05-14T04:35:57;14.80;99.90
7002;DHT22;3541;53.230;10.518;2023-05-14T04:38:24;14.80;99.90
7002;DHT22;3541;53.230;10.518;2023-05-14T04:40:51;14.80;99.90
7002;DHT22;3541;53.230;10.518;2023-05-14T04:43:17;14.90;99.90
7002;DHT22;3541;53.230;10.518;2023-05-14T04:45:44;14.90;99.90
7002;DHT22;3541;53.230;10.518;2023-05-14T04:48:11;15.00;99.90
7002;DHT22;3541;53.230;10.518;2023-05-14T04:50:38;15.00;99.90
7002;DHT22;3541;53.230;10.518;2023-05-14T04:53:05;15.00;99.90
7002;DHT22;3541;53.230;10.518;2023-05-14T04:55:31;15.00;99.90
7002;DHT22;3541;53.230;10.518;2023-05-14T04:57:58;15.00;99.90
7002;DHT22;3541;53.230;10.518;2023-05-14T05:00:24;15.10;99.90
7002;DHT22;3541;53.230;10.518;2023-05-14T05:02:51;15.10;99.90
7002;DHT22;3541;53.230;10.518;2023-05-14T05:05:19;15.00;99.90
7002;DHT22;3541;53.230;10.518;2023-05-14T05:07:46;15.10;99.90
7002;DHT22;3541;53.230;10.518;2023-05-14T05:10:12;15.20;99.90
7002;DHT22;3541;53.230;10.518;2023-05-14T05:12:39;15.20;99.90
7002;DHT22;3541;53.230;10.518;2023-05-14T05:15:07;15.20;99.90
7002;DHT22;3541;53.230;10.518;2023-05-14T05:17:34;15.20;99.90
7002;DHT22;3541;53.230;10.518;2023-05-14T05:20:01;15.20;99.90
7002;DHT22;3541;53.230;10.518;2023-05-14T05:22:30;15.30;99.90
7002;DHT22;3541;53.230;10.518;2023-05-14T05:24:57;15.30;99.90
7002;DHT22;3541;53.230;10.518;2023-05-14T05:27:24;15.30;99.90
7002;DHT22;3541;53.230;10.518;2023-05-14T05:29:50;15.30;99.90
7002;DHT22;3541;53.230;10.518;2023-05-14T05:32:17;15.40;99.90
7002;DHT22;3541;53.230;10.518;2023-05-14T05:34:43;15.40;99.90
7002;DHT22;3541;53.230;10.518;2023-05-14T05:37:10;15.40;99.90
7002;DHT22;3541;53.230;10.518;2023-05-14T05:39:39;15.50;99.90
7002;DHT22;3541;53.230;10.518;2023-05-14T05:42:06;15.50;99.90
7002;DHT22;3541;53.230;10.518;2023-05-14T05:44:33;15.50;99.90
7002;DHT22;3541;53.230;10.518;2023-05-14T05:46:59;15.70;99.90
7002;DHT22;3541;53.230;10.518;2023-05-14T05:49:26;15.70;99.90
7002;DHT22;3541;53.230;10.518;2023-05-14T05:51:52;15.80;99.90
7002;DHT22;3541;53.230;10.518;2023-05-14T05:54:19;15.90;99.90
7002;DHT22;3541;53.230;10.518;2023-05-14T05:56:47;15.90;99.90
7002;DHT22;3541;53.230;10.518;2023-05-14T05:59:14;16.00;99.90
7002;DHT22;3541;53.230;10.518;2023-05-14T06:01:40;16.00;99.90
7002;DHT22;3541;53.230;10.518;2023-05-14T06:04:08;16.10;99.90
7002;DHT22;3541;53.230;10.518;2023-05-14T06:06:34;16.10;99.90
7002;DHT22;3541;53.230;10.518;2023-05-14T06:09:01;16.20;99.90
7002;DHT22;3541;53.230;10.518;2023-05-14T06:11:27;16.30;99.90
7002;DHT22;3541;53.230;10.518;2023-05-14T06:13:55;16.40;99.90
7002;DHT22;3541;53.230;10.518;2023-05-14T06:16:22;16.40;99.90
7002;DHT22;3541;53.230;10.518;2023-05-14T06:18:48;16.40;99.90
7002;DHT22;3541;53.230;10.518;2023-05-14T06:21:16;16.50;99.90
7002;DHT22;3541;53.230;10.518;2023-05-14T06:23:43;16.60;99.90
7002;DHT22;3541;53.230;10.518;2023-05-14T06:26:09;16.70;99.90
7002;DHT22;3541;53.230;10.518;2023-05-14T06:28:36;16.80;99.90
7002;DHT22;3541;53.230;10.518;2023-05-14T06:31:04;16.90;99.90
7002;DHT22;3541;53.230;10.518;2023-05-14T06:33:30;16.90;99.90
7002;DHT22;3541;53.230;10.518;2023-05-14T06:35:57;16.90;99.90
7002;DHT22;3541;53.230;10.518;2023-05-14T06:38:24;16.90;99.90
7002;DHT22;3541;53.230;10.518;2023-05-14T06:40:51;17.00;99.90
7002;DHT22;3541;53.230;10.518;2023-05-14T06:43:17;17.00;99.90
7002;DHT22;3541;53.230;10.518;2023-05-14T06:45:47;17.00;99.90
7002;DHT22;3541;53.230;10.518;2023-05-14T06:48:15;17.00;99.90
7002;DHT22;3541;53.230;10.518;2023-05-14T06:50:43;17.00;99.90
7002;DHT22;3541;53.230;10.518;2023-05-14T06:53:09;17.10;99.90
7002;DHT22;3541;53.230;10.518;2023-05-14T06:55:36;17.10;99.90
7002;DHT22;3541;53.230;10.518;2023-05-14T06:58:04;17.10;99.90
7002;DHT22;3541;53.230;10.518;2023-05-14T07:00:31;17.20;99.90
7002;DHT22;3541;53.230;10.518;2023-05-14T07:02:57;17.30;99.90
7002;DHT22;3541;53.230;10.518;2023-05-14T07:05:25;17.20;99.90
7002;DHT22;3541;53.230;10.518;2023-05-14T07:07:52;17.30;99.90
7002;DHT22;3541;53.230;10.518;2023-05-14T07:10:19;17.30;99.90
7002;DHT22;3541;53.230;10.518;2023-05-14T07:12:45;17.40;99.90
7002;DHT22;3541;53.230;10.518;2023-05-14T07:15:12;17.40;99.90
7002;DHT22;3541;53.230;10.518;2023-05-14T07:17:38;17.50;99.90
7002;DHT22;3541;53.230;10.518;2023-05-14T07:20:06;17.50;99.90
7002;DHT22;3541;53.230;10.518;2023-05-14T07:22:34;17.60;99.90
7002;DHT22;3541;53.230;10.518;2023-05-14T07:25:01;17.60;99.90
7002;DHT22;3541;53.230;10.518;2023-05-14T07:27:27;17.70;99.90
7002;DHT22;3541;53.230;10.518;2023-05-14T07:29:54;17.70;99.90
7002;DHT22;3541;53.230;10.518;2023-05-14T07:32:20;17.80;99.90
7002;DHT22;3541;53.230;10.518;2023-05-14T07:34:49;17.80;99.90
7002;DHT22;3541;53.230;10.518;2023-05-14T07:37:15;17.90;99.90
7002;DHT22;3541;53.230;10.518;2023-05-14T07:39:44;18.00;99.90
7002;DHT22;3541;53.230;10.518;2023-05-14T07:42:10;18.00;99.90
7002;DHT22;3541;53.230;10.518;2023-05-14T07:44:37;18.00;99.90
7002;DHT22;3541;53.230;10.518;2023-05-14T07:47:03;18.10;99.90
7002;DHT22;3541;53.230;10.518;2023-05-14T07:49:31;18.10;99.90
7002;DHT22;3541;53.230;10.518;2023-05-14T07:51:58;18.20;99.90
7002;DHT22;3541;53.230;10.518;2023-05-14T07:54:24;18.30;99.90
7002;DHT22;3541;53.230;10.518;2023-05-14T07:56:52;18.30;99.90
7002;DHT22;3541;53.230;10.518;2023-05-14T07:59:19;18.30;99.90
7002;DHT22;3541;53.230;10.518;2023-05-14T08:01:46;18.40;99.90
7002;DHT22;3541;53.230;10.518;2023-05-14T08:04:12;18.50;99.90
7002;DHT22;3541;53.230;10.518;2023-05-14T08:06:40;18.60;99.90
7002;DHT22;3541;53.230;10.518;2023-05-14T08:09:07;18.60;99.90
7002;DHT22;3541;53.230;10.518;2023-05-14T08:11:34;18.60;99.90
7002;DHT22;3541;53.230;10.518;2023-05-14T08:14:02;18.70;99.90
7002;DHT22;3541;53.230;10.518;2023-05-14T08:16:28;18.80;99.90
7002;DHT22;3541;53.230;10.518;2023-05-14T08:18:55;18.80;99.90
7002;DHT22;3541;53.230;10.518;2023-05-14T08:21:21;18.90;99.90
7002;DHT22;3541;53.230;10.518;2023-05-14T08:23:48;18.90;99.90
7002;DHT22;3541;53.230;10.518;2023-05-14T08:26:15;19.00;99.90
7002;DHT22;3541;53.230;10.518;2023-05-14T08:28:41;19.10;99.90
7002;DHT22;3541;53.230;10.518;2023-05-14T08:31:09;19.20;99.90
7002;DHT22;3541;53.230;10.518;2023-05-14T08:33:36;19.30;99.90
7002;DHT22;3541;53.230;10.518;2023-05-14T08:36:03;19.30;99.90
7002;DHT22;3541;53.230;10.518;2023-05-14T08:38:30;19.40;99.90
7002;DHT22;3541;53.230;10.518;2023-05-14T08:40:57;19.40;99.90
7002;DHT22;3541;53.230;10.518;2023-05-14T08:43:25;19.50;99.90
7002;DHT22;3541;53.230;10.518;2023-05-14T08:45:57;19.50;99.90
7002;DHT22;3541;53.230;10.518;2023-05-14T08:48:31;19.50;99.90
7002;DHT22;3541;53.230;10.518;2023-05-14T08:50:58;19.60;99.90
7002;DHT22;3541;53.230;10.518;2023-05-14T08:53:25;19.70;99.90
7002;DHT22;3541;53.230;10.518;2023-05-14T08:55:52;19.80;99.90
7002;DHT22;3541;53.230;10.518;2023-05-14T08:58:19;19.90;99.90
7002;DHT22;3541;53.230;10.518;2023-05-14T09:00:45;19.90;99.90
7002;DHT22;3541;53.230;10.518;2023-05-14T09:03:13;19.90;99.90
7002;DHT22;3541;53.230;10.518;2023-05-14T09:05:41;20.10;99.90
7002;DHT22;3541;53.230;10.518;2023-05-14T09:08:08;20.30;99.90
7002;DHT22;3541;53.230;10.518;2023-05-14T09:10:35;20.40;99.90
7002;DHT22;3541;53.230;10.518;2023-05-14T09:13:01;20.50;99.90
7002;DHT22;3541;53.230;10.518;2023-05-14T09:15:28;20.40;99.90
7002;DHT22;3541;53.230;10.518;2023-05-14T09:17:56;20.30;99.90
7002;DHT22;3541;53.230;10.518;2023-05-14T09:20:23;20.40;99.90
7002;DHT22;3541;53.230;10.518;2023-05-14T09:22:53;20.40;99.90
7002;DHT22;3541;53.230;10.518;2023-05-14T09:25:19;20.40;99.90
7002;DHT22;3541;53.230;10.518;2023-05-14T09:27:51;20.50;99.90
7002;DHT22;3541;53.230;10.518;2023-05-14T09:30:19;20.60;99.90
7002;DHT22;3541;53.230;10.518;2023-05-14T09:32:45;20.60;99.90
7002;DHT22;3541;53.230;10.518;2023-05-14T09:35:16;20.50;99.90
7002;DHT22;3541;53.230;10.518;2023-05-14T09:37:44;20.40;99.90
7002;DHT22;3541;53.230;10.518;2023-05-14T09:40:14;20.20;99.90
7002;DHT22;3541;53.230;10.518;2023-05-14T09:42:41;20.10;99.90
7002;DHT22;3541;53.230;10.518;2023-05-14T09:45:08;20.30;99.90
7002;DHT22;3541;53.230;10.518;2023-05-14T09:47:35;20.20;99.90
7002;DHT22;3541;53.230;10.518;2023-05-14T09:50:02;20.20;99.90
7002;DHT22;3541;53.230;10.518;2023-05-14T09:52:28;20.30;99.90
7002;DHT22;3541;53.230;10.518;2023-05-14T09:54:55;20.60;99.90
7002;DHT22;3541;53.230;10.518;2023-05-14T09:57:23;20.80;99.90
7002;DHT22;3541;53.230;10.518;2023-05-14T09:59:51;20.90;98.60
7002;DHT22;3541;53.230;10.518;2023-05-14T10:02:21;20.90;97.60
7002;DHT22;3541;53.230;10.518;2023-05-14T10:04:49;20.90;98.10
7002;DHT22;3541;53.230;10.518;2023-05-14T10:07:20;20.80;97.10
7002;DHT22;3541;53.230;10.518;2023-05-14T10:09:47;20.70;97.70
7002;DHT22;3541;53.230;10.518;2023-05-14T10:12:15;20.70;98.40
7002;DHT22;3541;53.230;10.518;2023-05-14T10:14:47;20.70;97.80
7002;DHT22;3541;53.230;10.518;2023-05-14T10:17:18;20.80;97.60
7002;DHT22;3541;53.230;10.518;2023-05-14T10:19:49;20.90;97.50
7002;DHT22;3541;53.230;10.518;2023-05-14T10:22:21;21.00;96.70
7002;DHT22;3541;53.230;10.518;2023-05-14T10:24:49;21.00;96.70
7002;DHT22;3541;53.230;10.518;2023-05-14T10:27:17;20.90;96.40
7002;DHT22;3541;53.230;10.518;2023-05-14T10:29:52;20.80;97.50
7002;DHT22;3541;53.230;10.518;2023-05-14T10:32:20;20.80;97.80
7002;DHT22;3541;53.230;10.518;2023-05-14T10:34:47;20.70;99.00
7002;DHT22;3541;53.230;10.518;2023-05-14T10:37:15;20.60;97.40
7002;DHT22;3541;53.230;10.518;2023-05-14T10:39:46;20.60;98.80
7002;DHT22;3541;53.230;10.518;2023-05-14T10:42:16;20.60;98.60
7002;DHT22;3541;53.230;10.518;2023-05-14T10:44:49;20.60;98.70
7002;DHT22;3541;53.230;10.518;2023-05-14T10:47:17;20.60;98.70
7002;DHT22;3541;53.230;10.518;2023-05-14T10:49:45;20.50;98.40
7002;DHT22;3541;53.230;10.518;2023-05-14T10:52:15;20.50;98.20
7002;DHT22;3541;53.230;10.518;2023-05-14T10:54:51;20.40;99.50
7002;DHT22;3541;53.230;10.518;2023-05-14T10:57:19;20.50;99.80
7002;DHT22;3541;53.230;10.518;2023-05-14T10:59:46;20.40;99.20
7002;DHT22;3541;53.230;10.518;2023-05-14T11:02:23;20.40;99.30
7002;DHT22;3541;53.230;10.518;2023-05-14T11:04:58;20.40;99.30
7002;DHT22;3541;53.230;10.518;2023-05-14T11:07:28;20.40;98.00
7002;DHT22;3541;53.230;10.518;2023-05-14T11:09:59;20.30;97.90
7002;DHT22;3541;53.230;10.518;2023-05-14T11:12:26;20.30;97.90
7002;DHT22;3541;53.230;10.518;2023-05-14T11:14:53;20.20;96.70
7002;DHT22;3541;53.230;10.518;2023-05-14T11:17:23;20.20;97.00
7002;DHT22;3541;53.230;10.518;2023-05-14T11:19:50;20.20;97.10
7002;DHT22;3541;53.230;10.518;2023-05-14T11:22:16;20.20;97.50
7002;DHT22;3541;53.230;10.518;2023-05-14T11:24:43;20.20;98.30
7002;DHT22;3541;53.230;10.518;2023-05-14T11:27:10;20.20;98.90
7002;DHT22;3541;53.230;10.518;2023-05-14T11:29:37;20.20;98.00
7002;DHT22;3541;53.230;10.518;2023-05-14T11:32:05;20.20;98.30
7002;DHT22;3541;53.230;10.518;2023-05-14T11:34:33;20.10;99.70
7002;DHT22;3541;53.230;10.518;2023-05-14T11:37:02;20.10;99.90
7002;DHT22;3541;53.230;10.518;2023-05-14T11:39:29;20.10;99.90
7002;DHT22;3541;53.230;10.518;2023-05-14T11:41:57;20.10;99.90
7002;DHT22;3541;53.230;10.518;2023-05-14T11:44:23;20.10;99.90
7002;DHT22;3541;53.230;10.518;2023-05-14T11:46:54;20.10;99.90
7002;DHT22;3541;53.230;10.518;2023-05-14T11:49:21;20.10;99.90
7002;DHT22;3541;53.230;10.518;2023-05-14T11:51:49;20.10;99.90
7002;DHT22;3541;53.230;10.518;2023-05-14T11:54:16;20.10;99.90
7002;DHT22;3541;53.230;10.518;2023-05-14T11:56:48;20.10;99.90
7002;DHT22;3541;53.230;10.518;2023-05-14T11:59:16;20.20;99.90
7002;DHT22;3541;53.230;10.518;2023-05-14T12:01:44;20.20;99.90
7002;DHT22;3541;53.230;10.518;2023-05-14T12:04:11;20.20;99.90
7002;DHT22;3541;53.230;10.518;2023-05-14T12:06:38;20.20;99.90
7002;DHT22;3541;53.230;10.518;2023-05-14T12:09:06;20.20;99.90
7002;DHT22;3541;53.230;10.518;2023-05-14T12:11:35;20.20;99.90
7002;DHT22;3541;53.230;10.518;2023-05-14T12:14:09;20.20;99.90
7002;DHT22;3541;53.230;10.518;2023-05-14T12:16:39;20.20;99.90
7002;DHT22;3541;53.230;10.518;2023-05-14T12:19:07;20.20;99.90
7002;DHT22;3541;53.230;10.518;2023-05-14T12:21:34;20.20;99.80
7002;DHT22;3541;53.230;10.518;2023-05-14T12:24:01;20.20;99.90
7002;DHT22;3541;53.230;10.518;2023-05-14T12:26:31;20.20;99.90
7002;DHT22;3541;53.230;10.518;2023-05-14T12:28:59;20.20;99.70
7002;DHT22;3541;53.230;10.518;2023-05-14T12:31:29;20.30;99.90
7002;DHT22;3541;53.230;10.518;2023-05-14T12:33:56;20.40;99.90
7002;DHT22;3541;53.230;10.518;2023-05-14T12:36:23;20.40;99.90
7002;DHT22;3541;53.230;10.518;2023-05-14T12:38:52;20.40;99.90
7002;DHT22;3541;53.230;10.518;2023-05-14T12:41:22;20.50;99.90
7002;DHT22;3541;53.230;10.518;2023-05-14T12:43:50;20.50;99.80
7002;DHT22;3541;53.230;10.518;2023-05-14T12:46:16;20.50;99.90
7002;DHT22;3541;53.230;10.518;2023-05-14T12:48:43;20.60;99.90
7002;DHT22;3541;53.230;10.518;2023-05-14T12:51:09;20.70;99.90
7002;DHT22;3541;53.230;10.518;2023-05-14T12:53:36;20.70;99.90
7002;DHT22;3541;53.230;10.518;2023-05-14T12:56:03;20.80;99.90
7002;DHT22;3541;53.230;10.518;2023-05-14T12:58:29;20.90;99.90
7002;DHT22;3541;53.230;10.518;2023-05-14T13:00:57;21.00;99.90
7002;DHT22;3541;53.230;10.518;2023-05-14T13:03:24;21.00;99.10
7002;DHT22;3541;53.230;10.518;2023-05-14T13:05:52;21.20;98.70
7002;DHT22;3541;53.230;10.518;2023-05-14T13:08:20;21.30;98.50
7002;DHT22;3541;53.230;10.518;2023-05-14T13:10:49;21.30;97.20
7002;DHT22;3541;53.230;10.518;2023-05-14T13:13:15;21.40;97.60
7002;DHT22;3541;53.230;10.518;2023-05-14T13:15:42;21.40;96.90
7002;DHT22;3541;53.230;10.518;2023-05-14T13:18:12;21.60;97.20
7002;DHT22;3541;53.230;10.518;2023-05-14T13:20:39;21.60;97.20
7002;DHT22;3541;53.230;10.518;2023-05-14T13:23:05;21.70;96.80
7002;DHT22;3541;53.230;10.518;2023-05-14T13:25:32;21.90;96.00
7002;DHT22;3541;53.230;10.518;2023-05-14T13:27:59;21.90;96.20
7002;DHT22;3541;53.230;10.518;2023-05-14T13:30:25;22.00;95.30
7002;DHT22;3541;53.230;10.518;2023-05-14T13:32:52;22.10;94.30
7002;DHT22;3541;53.230;10.518;2023-05-14T13:35:20;22.30;94.80
7002;DHT22;3541;53.230;10.518;2023-05-14T13:37:46;22.30;93.30
7002;DHT22;3541;53.230;10.518;2023-05-14T13:40:13;22.40;92.50
7002;DHT22;3541;53.230;10.518;2023-05-14T13:42:39;22.50;92.40
7002;DHT22;3541;53.230;10.518;2023-05-14T13:45:07;22.60;91.60
7002;DHT22;3541;53.230;10.518;2023-05-14T13:47:33;22.70;92.90
7002;DHT22;3541;53.230;10.518;2023-05-14T13:50:00;22.60;92.20
7002;DHT22;3541;53.230;10.518;2023-05-14T13:52:28;22.60;92.00
7002;DHT22;3541;53.230;10.518;2023-05-14T13:54:54;22.50;92.30
7002;DHT22;3541;53.230;10.518;2023-05-14T13:57:21;22.40;91.70
7002;DHT22;3541;53.230;10.518;2023-05-14T13:59:48;22.30;91.90
7002;DHT22;3541;53.230;10.518;2023-05-14T14:02:15;22.30;92.00
7002;DHT22;3541;53.230;10.518;2023-05-14T14:04:42;22.20;92.20
7002;DHT22;3541;53.230;10.518;2023-05-14T14:07:08;22.20;92.90
7002;DHT22;3541;53.230;10.518;2023-05-14T14:09:36;22.10;92.50
7002;DHT22;3541;53.230;10.518;2023-05-14T14:12:04;22.10;92.50
7002;DHT22;3541;53.230;10.518;2023-05-14T14:14:30;22.00;91.80
7002;DHT22;3541;53.230;10.518;2023-05-14T14:16:57;22.00;92.10
7002;DHT22;3541;53.230;10.518;2023-05-14T14:19:24;21.90;92.40
7002;DHT22;3541;53.230;10.518;2023-05-14T14:21:50;21.90;92.40
7002;DHT22;3541;53.230;10.518;2023-05-14T14:24:17;21.90;92.40
7002;DHT22;3541;53.230;10.518;2023-05-14T14:26:45;21.90;92.70
7002;DHT22;3541;53.230;10.518;2023-05-14T14:29:11;21.80;91.70
7002;DHT22;3541;53.230;10.518;2023-05-14T14:31:38;21.80;92.00
7002;DHT22;3541;53.230;10.518;2023-05-14T14:34:05;21.80;91.80
7002;DHT22;3541;53.230;10.518;2023-05-14T14:36:32;21.90;91.70
7002;DHT22;3541;53.230;10.518;2023-05-14T14:38:58;22.00;92.20
7002;DHT22;3541;53.230;10.518;2023-05-14T14:41:25;22.40;91.80
7002;DHT22;3541;53.230;10.518;2023-05-14T14:43:53;22.60;91.10
7002;DHT22;3541;53.230;10.518;2023-05-14T14:46:19;22.80;90.90
7002;DHT22;3541;53.230;10.518;2023-05-14T14:48:46;22.80;89.70
7002;DHT22;3541;53.230;10.518;2023-05-14T14:51:13;22.60;88.90
7002;DHT22;3541;53.230;10.518;2023-05-14T14:53:39;22.40;89.80
7002;DHT22;3541;53.230;10.518;2023-05-14T14:56:06;22.40;91.20
7002;DHT22;3541;53.230;10.518;2023-05-14T14:58:33;22.40;90.20
7002;DHT22;3541;53.230;10.518;2023-05-14T15:01:02;22.40;90.70
7002;DHT22;3541;53.230;10.518;2023-05-14T15:03:29;22.40;90.20
7002;DHT22;3541;53.230;10.518;2023-05-14T15:05:55;22.40;90.60
7002;DHT22;3541;53.230;10.518;2023-05-14T15:08:24;22.50;90.40
7002;DHT22;3541;53.230;10.518;2023-05-14T15:10:51;22.60;89.00
7002;DHT22;3541;53.230;10.518;2023-05-14T15:13:18;23.00;86.90
7002;DHT22;3541;53.230;10.518;2023-05-14T15:15:45;23.10;87.40
7002;DHT22;3541;53.230;10.518;2023-05-14T15:18:13;23.00;84.60
7002;DHT22;3541;53.230;10.518;2023-05-14T15:20:39;22.90;87.00
7002;DHT22;3541;53.230;10.518;2023-05-14T15:23:06;22.80;86.70
7002;DHT22;3541;53.230;10.518;2023-05-14T15:25:33;22.80;86.10
7002;DHT22;3541;53.230;10.518;2023-05-14T15:27:59;22.70;86.00
7002;DHT22;3541;53.230;10.518;2023-05-14T15:30:26;22.60;88.10
7002;DHT22;3541;53.230;10.518;2023-05-14T15:32:52;22.60;90.00
7002;DHT22;3541;53.230;10.518;2023-05-14T15:35:20;22.50;87.20
7002;DHT22;3541;53.230;10.518;2023-05-14T15:37:47;22.40;85.20
7002;DHT22;3541;53.230;10.518;2023-05-14T15:40:14;22.30;88.20
7002;DHT22;3541;53.230;10.518;2023-05-14T15:42:42;22.40;89.30
7002;DHT22;3541;53.230;10.518;2023-05-14T15:45:10;22.50;90.20